Time;durP1;ratioP1;P1;durP2;ratioP2;P2;SDS_P1;SDS_P2;PMS_P1;PMS_P2;Temp;Humidity;BMP_temperature;BMP_pressure;BME280_temperature;BME280_humidity;BME280_pressure;Samples;Min_cycle;Max_cycle;Signal;HPM_P1;HPM_P2
2022/09/12 00:01:34;;;;;;;5.03;4.57;;;;;;;;;;4974828;28;20035;-62
2022/09/12 00:04:00;;;;;;;5.38;4.82;;;;;;;;;;4969351;28;20080;-62
2022/09/12 00:06:27;;;;;;;4.95;4.38;;;;;;;;;;4969013;28;20121;-62
2022/09/12 00:08:54;;;;;;;6.85;4.60;;;;;;;;;;4974332;28;20058;-62
2022/09/12 00:11:19;;;;;;;5.28;4.88;;;;;;;;;;4974548;28;20560;-61
2022/09/12 00:13:44;;;;;;;4.60;4.30;;;;;;;;;;4973287;28;20031;-61
2022/09/12 00:16:14;;;;;;;4.97;4.38;;;;;;;;;;4972893;28;20493;-62
2022/09/12 00:18:39;;;;;;;4.80;4.50;;;;;;;;;;4971180;28;20031;-61
2022/09/12 00:21:05;;;;;;;4.90;4.30;;;;;;;;;;4973953;28;20034;-61
2022/09/12 00:23:30;;;;;;;5.13;4.72;;;;;;;;;;4972796;28;20065;-61
2022/09/12 00:25:56;;;;;;;4.93;4.53;;;;;;;;;;4980592;28;20571;-62
2022/09/12 00:28:21;;;;;;;4.97;4.57;;;;;;;;;;4971296;28;20125;-61
2022/09/12 00:30:47;;;;;;;4.53;4.18;;;;;;;;;;4972649;28;20019;-61
2022/09/12 00:33:13;;;;;;;5.15;4.65;;;;;;;;;;4969560;28;20042;-61
2022/09/12 00:35:43;;;;;;;5.95;5.45;;;;;;;;;;4968109;28;20789;-61
2022/09/12 00:38:08;;;;;;;6.35;5.75;;;;;;;;;;4970857;28;20046;-61
2022/09/12 00:40:33;;;;;;;7.03;6.03;;;;;;;;;;4972832;28;20031;-61
2022/09/12 00:42:58;;;;;;;6.38;5.85;;;;;;;;;;4973113;28;20038;-61
2022/09/12 00:45:26;;;;;;;6.88;6.25;;;;;;;;;;4973739;28;20035;-61
2022/09/12 00:47:52;;;;;;;5.90;5.28;;;;;;;;;;4972660;28;20473;-61
2022/09/12 00:50:18;;;;;;;6.05;5.53;;;;;;;;;;4968640;28;20041;-61
2022/09/12 00:52:45;;;;;;;6.43;5.82;;;;;;;;;;4968761;28;20119;-61
2022/09/12 00:55:29;;;;;;;6.68;6.07;;;;;;;;;;4971798;28;20085;-61
2022/09/12 00:57:56;;;;;;;6.50;5.97;;;;;;;;;;4972783;28;20142;-61
2022/09/12 01:00:23;;;;;;;6.55;6.00;;;;;;;;;;4973635;28;20038;-61
2022/09/12 01:02:50;;;;;;;6.72;6.22;;;;;;;;;;4973243;28;20023;-61
2022/09/12 01:05:15;;;;;;;6.60;6.00;;;;;;;;;;4971781;28;20023;-61
2022/09/12 01:07:41;;;;;;;7.57;6.88;;;;;;;;;;4971653;28;20039;-61
2022/09/12 01:10:08;;;;;;;6.38;5.78;;;;;;;;;;4972857;28;20035;-61
2022/09/12 01:12:36;;;;;;;7.85;7.15;;;;;;;;;;4973992;28;20432;-62
2022/09/12 01:15:01;;;;;;;6.78;6.28;;;;;;;;;;4971755;28;20123;-61
2022/09/12 01:17:30;;;;;;;6.82;6.32;;;;;;;;;;4972803;28;20042;-61
2022/09/12 01:20:16;;;;;;;8.25;7.55;;;;;;;;;;4972436;28;20639;-61
2022/09/12 01:22:53;;;;;;;7.30;6.65;;;;;;;;;;4973057;28;20039;-62
2022/09/12 01:25:41;;;;;;;7.47;6.95;;;;;;;;;;4972276;28;20030;-61
2022/09/12 01:28:26;;;;;;;7.43;6.78;;;;;;;;;;4971677;28;20145;-61
2022/09/12 01:31:01;;;;;;;7.63;6.93;;;;;;;;;;4973039;28;20030;-60
2022/09/12 01:33:32;;;;;;;9.25;7.93;;;;;;;;;;4974013;28;20046;-62
2022/09/12 01:36:16;;;;;;;8.07;7.40;;;;;;;;;;4970527;28;20180;-63
2022/09/12 01:38:45;;;;;;;8.40;7.70;;;;;;;;;;4971952;28;20099;-63
2022/09/12 01:41:11;;;;;;;7.22;6.63;;;;;;;;;;4973230;28;20509;-61
2022/09/12 01:43:50;;;;;;;7.88;7.18;;;;;;;;;;4971521;28;20022;-61
2022/09/12 01:46:26;;;;;;;7.00;6.40;;;;;;;;;;4972286;28;20039;-61
2022/09/12 01:49:17;;;;;;;7.55;6.95;;;;;;;;;;4970801;28;20097;-61
2022/09/12 01:51:52;;;;;;;7.45;6.75;;;;;;;;;;4971895;28;20087;-61
2022/09/12 01:54:21;;;;;;;6.60;6.05;;;;;;;;;;4971924;28;20119;-61
2022/09/12 01:56:47;;;;;;;8.18;7.47;;;;;;;;;;4971787;28;20043;-61
2022/09/12 01:59:18;;;;;;;7.60;6.90;;;;;;;;;;4971491;28;20721;-61
2022/09/12 02:01:46;;;;;;;7.10;6.60;;;;;;;;;;4972281;28;20077;-61
2022/09/12 02:04:15;;;;;;;6.90;6.25;;;;;;;;;;4969056;28;20361;-61
2022/09/12 02:06:47;;;;;;;6.82;6.32;;;;;;;;;;4971925;28;20035;-61
2022/09/12 02:09:20;;;;;;;6.55;5.97;;;;;;;;;;4976358;28;20027;-60
2022/09/12 02:11:47;;;;;;;7.43;6.72;;;;;;;;;;4977354;28;20915;-63
2022/09/12 02:14:23;;;;;;;6.07;5.57;;;;;;;;;;4976146;28;20466;-63
2022/09/12 02:16:51;;;;;;;5.82;5.32;;;;;;;;;;4975314;28;20561;-63
2022/09/12 02:19:22;;;;;;;6.03;5.53;;;;;;;;;;4974659;28;20042;-62
2022/09/12 02:21:57;;;;;;;5.10;4.70;;;;;;;;;;4975652;28;20030;-63
2022/09/12 02:24:22;;;;;;;;;;;;;;;;;;4972452;28;20022;-62
2022/09/12 02:26:55;;;;;;;6.03;4.88;;;;;;;;;;4969341;28;19972;-63
2022/09/12 02:29:21;;;;;;;6.32;5.72;;;;;;;;;;4972430;28;20074;-61
2022/09/12 02:31:53;;;;;;;4.60;4.30;;;;;;;;;;4975342;28;20071;-62
2022/09/12 02:34:27;;;;;;;4.93;4.53;;;;;;;;;;4975538;28;20023;-60
2022/09/12 02:37:05;;;;;;;5.10;4.70;;;;;;;;;;4974486;28;20043;-60
2022/09/12 02:39:30;;;;;;;5.22;4.82;;;;;;;;;;4975185;28;21301;-60
2022/09/12 02:41:58;;;;;;;5.25;4.80;;;;;;;;;;4976472;28;20041;-60
2022/09/12 02:44:24;;;;;;;4.72;4.32;;;;;;;;;;4974434;28;20033;-60
2022/09/12 02:46:52;;;;;;;4.90;4.50;;;;;;;;;;4974850;28;20039;-60
2022/09/12 02:49:17;;;;;;;4.80;4.40;;;;;;;;;;4975186;28;20034;-60
2022/09/12 02:51:43;;;;;;;5.45;5.05;;;;;;;;;;4974914;28;20506;-60
2022/09/12 02:54:08;;;;;;;5.25;4.95;;;;;;;;;;4974166;28;20025;-61
2022/09/12 02:56:34;;;;;;;4.93;4.47;;;;;;;;;;4975136;28;20030;-61
2022/09/12 02:59:05;;;;;;;5.30;4.80;;;;;;;;;;4974540;28;20073;-60
2022/09/12 03:01:38;;;;;;;5.70;5.15;;;;;;;;;;4974406;28;20023;-61
2022/09/12 03:04:06;;;;;;;4.57;4.28;;;;;;;;;;4973841;28;20089;-60
2022/09/12 03:06:39;;;;;;;5.95;5.35;;;;;;;;;;4973124;28;20030;-61
2022/09/12 03:09:14;;;;;;;4.72;4.32;;;;;;;;;;4974397;28;20034;-62
2022/09/12 03:11:48;;;;;;;5.78;5.15;;;;;;;;;;4972928;28;20113;-59
2022/09/12 03:14:19;;;;;;;5.18;4.78;;;;;;;;;;4973732;28;20103;-59
2022/09/12 03:16:50;;;;;;;5.15;4.72;;;;;;;;;;4972923;28;20086;-60
2022/09/12 03:19:31;;;;;;;5.60;5.10;;;;;;;;;;4972285;28;20045;-60
2022/09/12 03:21:56;;;;;;;4.82;4.43;;;;;;;;;;4973983;28;20041;-57
2022/09/12 03:24:28;;;;;;;4.63;4.22;;;;;;;;;;4974441;28;20378;-58
2022/09/12 03:27:02;;;;;;;4.78;3.90;;;;;;;;;;4972761;28;20027;-60
2022/09/12 03:29:28;;;;;;;5.07;4.67;;;;;;;;;;4974564;28;20465;-59
2022/09/12 03:31:55;;;;;;;4.75;4.45;;;;;;;;;;4972021;28;20023;-59
2022/09/12 03:34:21;;;;;;;5.57;5.07;;;;;;;;;;4973102;28;20033;-60
2022/09/12 03:36:47;;;;;;;4.82;4.47;;;;;;;;;;4974570;28;20053;-60
2022/09/12 03:39:12;;;;;;;4.15;3.85;;;;;;;;;;4973117;28;20026;-59
2022/09/12 03:41:38;;;;;;;4.88;4.47;;;;;;;;;;4974071;28;20015;-61
2022/09/12 03:44:03;;;;;;;4.40;4.10;;;;;;;;;;4973226;28;20026;-59
2022/09/12 03:46:28;;;;;;;4.45;4.05;;;;;;;;;;4972647;28;20594;-62
2022/09/12 03:48:53;;;;;;;4.70;4.38;;;;;;;;;;4971204;28;20038;-62
2022/09/12 03:51:19;;;;;;;5.53;4.82;;;;;;;;;;4969570;28;20030;-60
2022/09/12 03:53:44;;;;;;;4.80;4.38;;;;;;;;;;4971305;28;20027;-61
2022/09/12 03:56:12;;;;;;;5.43;4.95;;;;;;;;;;4972925;28;20209;-61
2022/09/12 03:58:38;;;;;;;4.45;4.03;;;;;;;;;;4973025;28;20065;-60
2022/09/12 04:01:11;;;;;;;4.40;4.10;;;;;;;;;;4972674;28;20022;-60
2022/09/12 04:03:37;;;;;;;4.20;3.90;;;;;;;;;;4973320;28;20039;-60
2022/09/12 04:06:03;;;;;;;4.90;4.50;;;;;;;;;;4973740;28;20018;-60
2022/09/12 04:08:28;;;;;;;5.03;4.63;;;;;;;;;;4972646;28;20133;-60
2022/09/12 04:10:53;;;;;;;4.30;4.00;;;;;;;;;;4973804;28;20031;-60
2022/09/12 04:13:18;;;;;;;4.47;4.18;;;;;;;;;;4972750;28;20037;-61
2022/09/12 04:15:54;;;;;;;4.50;4.10;;;;;;;;;;4973889;28;20032;-60
2022/09/12 04:18:19;;;;;;;4.75;4.40;;;;;;;;;;4973888;28;20065;-60
2022/09/12 04:20:44;;;;;;;4.65;4.35;;;;;;;;;;4972803;28;20101;-60
2022/09/12 04:23:10;;;;;;;4.75;4.22;;;;;;;;;;4974685;28;20084;-59
2022/09/12 04:25:35;;;;;;;4.40;4.05;;;;;;;;;;4972749;28;21133;-59
2022/09/12 04:28:00;;;;;;;5.00;4.60;;;;;;;;;;4972099;28;20064;-60
2022/09/12 04:30:25;;;;;;;4.82;4.45;;;;;;;;;;4972591;28;20030;-61
2022/09/12 04:32:50;;;;;;;4.22;3.85;;;;;;;;;;4972618;28;20034;-59
2022/09/12 04:35:16;;;;;;;5.47;4.47;;;;;;;;;;4973348;28;20031;-60
2022/09/12 04:37:41;;;;;;;4.70;4.35;;;;;;;;;;4972637;28;20058;-61
2022/09/12 04:40:06;;;;;;;8.57;4.65;;;;;;;;;;4973027;28;20026;-60
2022/09/12 04:42:32;;;;;;;4.30;3.85;;;;;;;;;;4973074;28;20466;-60
2022/09/12 04:44:57;;;;;;;4.93;4.45;;;;;;;;;;4972058;28;20026;-62
2022/09/12 04:47:22;;;;;;;5.97;5.35;;;;;;;;;;4972059;28;20500;-65
2022/09/12 04:49:49;;;;;;;5.40;4.93;;;;;;;;;;4972579;28;20500;-62
2022/09/12 04:52:15;;;;;;;4.97;4.57;;;;;;;;;;4973103;28;20520;-60
2022/09/12 04:54:40;;;;;;;6.03;5.32;;;;;;;;;;4972360;28;20035;-62
2022/09/12 04:57:05;;;;;;;6.75;5.60;;;;;;;;;;4971685;28;20034;-61
2022/09/12 04:59:30;;;;;;;5.35;4.95;;;;;;;;;;4971835;28;20035;-61
2022/09/12 05:01:56;;;;;;;5.00;4.63;;;;;;;;;;4974472;28;20042;-61
2022/09/12 05:04:21;;;;;;;5.47;4.97;;;;;;;;;;4972986;28;20035;-62
2022/09/12 05:06:46;;;;;;;5.55;4.95;;;;;;;;;;4971925;28;20030;-61
2022/09/12 05:09:13;;;;;;;6.60;5.20;;;;;;;;;;4972572;28;20081;-60
2022/09/12 05:11:39;;;;;;;6.00;5.40;;;;;;;;;;4974220;28;20026;-64
2022/09/12 05:14:04;;;;;;;6.88;5.80;;;;;;;;;;4972801;28;20045;-64
2022/09/12 05:16:31;;;;;;;4.95;4.65;;;;;;;;;;4973229;28;20035;-64
2022/09/12 05:18:57;;;;;;;5.10;4.60;;;;;;;;;;4973394;28;20038;-64
2022/09/12 05:21:22;;;;;;;5.72;5.13;;;;;;;;;;4972365;28;20381;-66
2022/09/12 05:23:55;;;;;;;6.60;5.57;;;;;;;;;;4972901;28;20026;-63
2022/09/12 05:26:22;;;;;;;6.70;4.95;;;;;;;;;;4971309;28;20030;-64
2022/09/12 05:28:48;;;;;;;5.85;5.35;;;;;;;;;;4972323;28;20063;-64
2022/09/12 05:31:24;;;;;;;5.68;5.22;;;;;;;;;;4979998;28;20086;-64
2022/09/12 05:33:51;;;;;;;6.25;5.63;;;;;;;;;;4967453;28;20165;-64
2022/09/12 05:36:18;;;;;;;6.05;5.55;;;;;;;;;;4968634;28;20502;-64
2022/09/12 05:38:43;;;;;;;5.63;5.13;;;;;;;;;;4971697;28;20039;-64
2022/09/12 05:41:11;;;;;;;6.03;5.53;;;;;;;;;;4971725;28;20762;-64
2022/09/12 05:43:39;;;;;;;5.70;5.10;;;;;;;;;;4973476;28;20030;-64
2022/09/12 05:46:07;;;;;;;5.10;4.78;;;;;;;;;;4971035;28;20034;-65
2022/09/12 05:48:34;;;;;;;5.90;5.28;;;;;;;;;;4975023;28;20058;-66
2022/09/12 05:51:03;;;;;;;7.28;5.78;;;;;;;;;;4972583;28;20126;-65
2022/09/12 05:53:29;;;;;;;6.03;5.53;;;;;;;;;;4971633;28;20018;-66
2022/09/12 05:56:05;;;;;;;6.40;5.80;;;;;;;;;;4976419;28;20029;-65
2022/09/12 05:58:31;;;;;;;6.75;5.60;;;;;;;;;;4974920;28;20062;-65
2022/09/12 06:01:00;;;;;;;8.02;7.32;;;;;;;;;;4976230;28;20122;-65
2022/09/12 06:03:25;;;;;;;8.60;5.68;;;;;;;;;;4975374;28;20778;-67
2022/09/12 06:05:50;;;;;;;5.72;4.97;;;;;;;;;;4976331;28;20046;-67
2022/09/12 06:08:16;;;;;;;6.05;5.45;;;;;;;;;;4976297;28;20440;-64
2022/09/12 06:10:42;;;;;;;4.88;4.43;;;;;;;;;;4973975;28;20794;-66
2022/09/12 06:13:07;;;;;;;5.25;4.75;;;;;;;;;;4972093;28;20845;-65
2022/09/12 06:15:32;;;;;;;5.25;4.75;;;;;;;;;;4973201;28;20054;-65
2022/09/12 06:17:57;;;;;;;5.65;5.05;;;;;;;;;;4971533;28;20117;-65
2022/09/12 06:20:23;;;;;;;5.38;4.88;;;;;;;;;;4973096;28;20507;-64
2022/09/12 06:22:51;;;;;;;6.20;5.60;;;;;;;;;;4976888;28;20026;-65
2022/09/12 06:25:17;;;;;;;5.95;5.35;;;;;;;;;;4976030;28;20118;-65
2022/09/12 06:27:42;;;;;;;5.63;5.18;;;;;;;;;;4971635;28;20081;-66
2022/09/12 06:30:07;;;;;;;5.45;4.90;;;;;;;;;;4973941;28;20042;-65
2022/09/12 06:32:33;;;;;;;6.45;5.85;;;;;;;;;;4975058;28;20034;-64
2022/09/12 06:34:58;;;;;;;6.80;5.07;;;;;;;;;;4972899;28;20054;-66
2022/09/12 06:37:24;;;;;;;5.40;5.00;;;;;;;;;;4970296;28;20102;-65
2022/09/12 06:39:49;;;;;;;4.90;4.60;;;;;;;;;;4972398;28;20030;-65
2022/09/12 06:42:14;;;;;;;5.90;4.47;;;;;;;;;;4971057;28;20026;-65
2022/09/12 06:44:40;;;;;;;4.22;3.92;;;;;;;;;;4974252;28;20466;-64
2022/09/12 06:47:06;;;;;;;4.13;3.83;;;;;;;;;;4974562;28;20043;-65
2022/09/12 06:49:31;;;;;;;4.65;4.35;;;;;;;;;;4973479;28;20128;-65
2022/09/12 06:51:56;;;;;;;5.03;4.53;;;;;;;;;;4971406;28;20937;-65
2022/09/12 06:54:22;;;;;;;4.53;4.13;;;;;;;;;;4970504;28;20041;-66
2022/09/12 06:56:47;;;;;;;4.40;4.07;;;;;;;;;;4969939;28;20066;-65
2022/09/12 06:59:12;;;;;;;4.72;4.30;;;;;;;;;;4972028;28;20066;-65
2022/09/12 07:01:38;;;;;;;5.45;4.22;;;;;;;;;;4970411;28;20512;-65
2022/09/12 07:04:04;;;;;;;5.05;4.20;;;;;;;;;;4970472;28;20389;-67
2022/09/12 07:06:39;;;;;;;4.10;3.80;;;;;;;;;;4975304;28;20046;-66
2022/09/12 07:09:05;;;;;;;4.72;4.32;;;;;;;;;;4973874;28;20026;-65
2022/09/12 07:11:32;;;;;;;4.28;3.85;;;;;;;;;;4975492;28;20041;-64
2022/09/12 07:13:58;;;;;;;4.88;3.78;;;;;;;;;;4972185;28;20399;-65
2022/09/12 07:16:24;;;;;;;3.95;3.47;;;;;;;;;;4969642;28;20034;-65
2022/09/12 07:18:53;;;;;;;4.18;3.88;;;;;;;;;;4974679;28;20037;-65
2022/09/12 07:21:19;;;;;;;4.22;3.67;;;;;;;;;;4974162;28;20026;-65
2022/09/12 07:23:44;;;;;;;4.90;4.50;;;;;;;;;;4970771;28;20886;-65
2022/09/12 07:26:10;;;;;;;6.90;4.40;;;;;;;;;;4968795;28;20034;-65
2022/09/12 07:28:36;;;;;;;5.90;4.53;;;;;;;;;;4971827;28;20063;-65
2022/09/12 07:31:27;;;;;;;4.82;4.43;;;;;;;;;;4971411;28;20037;-65
2022/09/12 07:33:53;;;;;;;6.07;5.53;;;;;;;;;;4969602;28;20646;-65
2022/09/12 07:36:21;;;;;;;5.70;5.13;;;;;;;;;;4975364;28;20030;-67
2022/09/12 07:38:46;;;;;;;5.43;4.57;;;;;;;;;;4981317;28;20047;-65
2022/09/12 07:41:12;;;;;;;5.20;4.70;;;;;;;;;;4969851;28;21162;-66
2022/09/12 07:43:37;;;;;;;4.80;4.38;;;;;;;;;;4970689;28;20109;-65
2022/09/12 07:46:03;;;;;;;4.22;3.92;;;;;;;;;;4975678;28;20170;-65
2022/09/12 07:48:28;;;;;;;4.72;4.32;;;;;;;;;;4974675;28;20493;-65
2022/09/12 07:51:00;;;;;;;5.57;5.07;;;;;;;;;;4973015;28;20038;-65
2022/09/12 07:53:26;;;;;;;5.05;4.20;;;;;;;;;;4973010;28;20026;-63
2022/09/12 07:55:52;;;;;;;6.90;5.47;;;;;;;;;;4973966;28;20038;-68
2022/09/12 07:58:17;;;;;;;7.03;4.70;;;;;;;;;;5004636;28;20033;-62
2022/09/12 08:00:44;;;;;;;11.52;5.45;;;;;;;;;;4973168;28;20384;-61
2022/09/12 08:03:10;;;;;;;5.40;4.30;;;;;;;;;;4973697;28;20038;-64
2022/09/12 08:05:36;;;;;;;5.18;4.78;;;;;;;;;;4973652;28;20031;-66
2022/09/12 08:08:01;;;;;;;6.03;4.30;;;;;;;;;;4972531;28;20891;-68
2022/09/12 08:10:26;;;;;;;6.15;4.70;;;;;;;;;;4974457;28;20138;-68
2022/09/12 08:12:51;;;;;;;5.40;4.90;;;;;;;;;;4974946;28;20556;-68
2022/09/12 08:15:18;;;;;;;5.30;4.88;;;;;;;;;;4975287;28;20031;-68
2022/09/12 08:17:44;;;;;;;5.40;4.65;;;;;;;;;;4973200;28;20026;-68
2022/09/12 08:20:09;;;;;;;6.32;5.60;;;;;;;;;;4972883;28;20082;-69
2022/09/12 08:22:34;;;;;;;6.63;4.38;;;;;;;;;;4972971;28;20041;-69
2022/09/12 08:24:59;;;;;;;4.88;4.40;;;;;;;;;;4972904;28;20023;-68
2022/09/12 08:27:25;;;;;;;5.63;4.75;;;;;;;;;;4974702;28;20117;-68
2022/09/12 08:29:50;;;;;;;4.97;4.43;;;;;;;;;;4978447;28;20041;-69
2022/09/12 08:32:15;;;;;;;4.30;3.95;;;;;;;;;;4974490;28;20121;-68
2022/09/12 08:34:40;;;;;;;4.80;4.40;;;;;;;;;;4968788;28;20232;-72
2022/09/12 08:37:06;;;;;;;5.25;4.75;;;;;;;;;;4971200;28;20931;-69
2022/09/12 08:39:32;;;;;;;4.85;4.45;;;;;;;;;;4972407;28;20355;-69
2022/09/12 08:42:01;;;;;;;5.22;4.80;;;;;;;;;;4973113;28;20730;-68
2022/09/12 08:44:27;;;;;;;4.78;4.38;;;;;;;;;;4971853;28;20031;-68
2022/09/12 08:46:52;;;;;;;5.72;5.22;;;;;;;;;;4973776;28;20077;-69
2022/09/12 08:49:32;;;;;;;4.90;4.50;;;;;;;;;;4973713;28;20388;-69
2022/09/12 08:51:59;;;;;;;4.75;3.95;;;;;;;;;;4973002;28;20030;-68
2022/09/12 08:54:27;;;;;;;7.90;4.45;;;;;;;;;;4973645;28;20541;-69
2022/09/12 08:56:56;;;;;;;5.07;4.38;;;;;;;;;;4973021;28;20030;-68
2022/09/12 08:59:21;;;;;;;5.55;4.20;;;;;;;;;;4973393;28;20039;-68
2022/09/12 09:01:52;;;;;;;4.57;3.92;;;;;;;;;;4972358;28;20030;-68
2022/09/12 09:04:25;;;;;;;4.72;4.32;;;;;;;;;;4968404;28;20037;-69
2022/09/12 09:06:50;;;;;;;4.93;4.53;;;;;;;;;;4970275;28;20041;-68
2022/09/12 09:09:27;;;;;;;5.88;3.78;;;;;;;;;;4968764;28;20026;-68
2022/09/12 09:12:01;;;;;;;4.60;4.20;;;;;;;;;;4973046;28;20491;-68
2022/09/12 09:14:48;;;;;;;6.00;4.55;;;;;;;;;;4972993;28;20526;-67
2022/09/12 09:17:19;;;;;;;4.18;3.53;;;;;;;;;;4972645;28;20173;-68
2022/09/12 09:19:47;;;;;;;4.93;4.40;;;;;;;;;;4976986;28;20440;-68
2022/09/12 09:22:16;;;;;;;4.45;4.07;;;;;;;;;;4975749;28;20034;-68
2022/09/12 09:24:44;;;;;;;4.25;3.85;;;;;;;;;;4978321;28;20057;-67
2022/09/12 09:27:10;;;;;;;4.18;3.78;;;;;;;;;;4976260;28;20054;-68
2022/09/12 09:29:39;;;;;;;4.65;4.15;;;;;;;;;;4977183;28;20707;-68
2022/09/12 09:32:12;;;;;;;4.35;4.05;;;;;;;;;;4976145;28;20029;-67
2022/09/12 09:34:37;;;;;;;4.30;3.90;;;;;;;;;;4976790;28;20046;-67
2022/09/12 09:37:17;;;;;;;4.07;3.75;;;;;;;;;;4975659;28;20042;-68
2022/09/12 09:39:42;;;;;;;3.97;3.63;;;;;;;;;;4972251;28;20787;-68
2022/09/12 09:42:16;;;;;;;3.83;3.53;;;;;;;;;;4977317;28;20070;-69
2022/09/12 09:44:43;;;;;;;3.25;3.05;;;;;;;;;;4973213;28;20049;-68
2022/09/12 09:47:09;;;;;;;4.30;2.97;;;;;;;;;;4971986;28;20034;-68
2022/09/12 09:49:35;;;;;;;3.72;3.17;;;;;;;;;;4972118;28;20031;-69
2022/09/12 09:52:01;;;;;;;5.13;3.70;;;;;;;;;;4974541;28;20058;-69
2022/09/12 09:54:38;;;;;;;3.95;3.17;;;;;;;;;;4976106;28;20039;-68
2022/09/12 09:57:04;;;;;;;4.15;3.58;;;;;;;;;;4974371;28;20043;-68
2022/09/12 09:59:33;;;;;;;3.53;3.22;;;;;;;;;;4975920;28;20096;-68
2022/09/12 10:02:02;;;;;;;3.28;3.00;;;;;;;;;;4975855;28;20023;-68
2022/09/12 10:04:32;;;;;;;3.63;3.33;;;;;;;;;;4975699;28;20026;-68
2022/09/12 10:06:59;;;;;;;3.50;3.20;;;;;;;;;;4976094;28;20042;-68
2022/09/12 10:09:26;;;;;;;5.68;3.33;;;;;;;;;;4976001;28;20066;-69
2022/09/12 10:11:51;;;;;;;4.13;2.90;;;;;;;;;;4976178;28;20503;-68
2022/09/12 10:14:27;;;;;;;3.45;3.20;;;;;;;;;;4976874;28;20031;-69
2022/09/12 10:16:53;;;;;;;4.30;3.40;;;;;;;;;;4975034;28;20043;-69
2022/09/12 10:19:25;;;;;;;4.75;3.45;;;;;;;;;;4974836;28;20038;-69
2022/09/12 10:21:52;;;;;;;4.07;3.08;;;;;;;;;;4976173;28;20061;-69
2022/09/12 10:24:20;;;;;;;3.22;2.92;;;;;;;;;;4972640;28;20038;-69
2022/09/12 10:26:48;;;;;;;3.35;3.15;;;;;;;;;;4971493;28;20915;-68
2022/09/12 10:29:15;;;;;;;3.78;3.28;;;;;;;;;;4975895;28;20027;-69
2022/09/12 10:31:43;;;;;;;3.75;3.47;;;;;;;;;;4975685;28;20101;-69
2022/09/12 10:34:19;;;;;;;3.15;2.95;;;;;;;;;;4976992;28;20030;-72
2022/09/12 10:36:44;;;;;;;3.60;3.08;;;;;;;;;;4982916;28;20133;-68
2022/09/12 10:39:13;;;;;;;3.35;2.95;;;;;;;;;;4976877;28;20370;-69
2022/09/12 10:41:39;;;;;;;4.05;3.60;;;;;;;;;;4975006;28;20031;-68
2022/09/12 10:44:13;;;;;;;3.97;3.63;;;;;;;;;;4975481;28;20078;-68
2022/09/12 10:46:39;;;;;;;3.10;2.90;;;;;;;;;;4975166;28;20042;-68
2022/09/12 10:49:20;;;;;;;2.90;2.70;;;;;;;;;;4975478;28;20037;-69
2022/09/12 10:51:46;;;;;;;3.42;3.17;;;;;;;;;;4974370;28;20508;-68
2022/09/12 10:54:12;;;;;;;3.33;3.13;;;;;;;;;;4975075;28;20030;-68
2022/09/12 10:56:43;;;;;;;2.92;2.72;;;;;;;;;;4975152;28;20034;-68
2022/09/12 10:59:27;;;;;;;3.08;2.88;;;;;;;;;;4974957;28;20042;-68
2022/09/12 11:01:52;;;;;;;2.72;2.53;;;;;;;;;;4973717;28;20082;-68
2022/09/12 11:04:27;;;;;;;3.10;2.90;;;;;;;;;;4970110;28;20672;-67
2022/09/12 11:06:59;;;;;;;2.92;2.63;;;;;;;;;;4973038;28;20031;-63
2022/09/12 11:09:44;;;;;;;3.58;3.22;;;;;;;;;;4970495;28;20069;-64
2022/09/12 11:12:09;;;;;;;3.20;3.00;;;;;;;;;;4970792;28;20035;-62
2022/09/12 11:14:40;;;;;;;3.80;3.30;;;;;;;;;;4974197;28;20037;-63
2022/09/12 11:17:12;;;;;;;5.18;3.90;;;;;;;;;;4974526;28;20122;-63
2022/09/12 11:19:37;;;;;;;3.50;3.20;;;;;;;;;;4974273;28;20039;-63
2022/09/12 11:22:06;;;;;;;3.40;3.20;;;;;;;;;;4975120;28;20049;-63
2022/09/12 11:24:50;;;;;;;3.50;3.13;;;;;;;;;;4974132;28;20027;-63
2022/09/12 11:27:18;;;;;;;3.45;3.00;;;;;;;;;;4974019;28;20058;-63
2022/09/12 11:29:44;;;;;;;3.10;2.90;;;;;;;;;;4973321;28;20027;-63
2022/09/12 11:32:13;;;;;;;2.58;2.38;;;;;;;;;;4973598;28;20026;-63
2022/09/12 11:34:54;;;;;;;3.08;2.88;;;;;;;;;;4975111;28;20076;-62
2022/09/12 11:37:42;;;;;;;3.55;3.15;;;;;;;;;;4973616;28;20047;-63
2022/09/12 11:40:23;;;;;;;3.60;3.20;;;;;;;;;;4968861;28;20105;-60
2022/09/12 11:42:51;;;;;;;3.35;3.15;;;;;;;;;;4971667;28;20219;-61
2022/09/12 11:45:19;;;;;;;3.25;3.05;;;;;;;;;;4974105;28;20049;-63
2022/09/12 11:47:47;;;;;;;3.47;3.17;;;;;;;;;;4973224;28;20035;-63
2022/09/12 11:50:17;;;;;;;3.95;3.55;;;;;;;;;;4974004;28;20355;-65
2022/09/12 11:52:43;;;;;;;3.55;3.33;;;;;;;;;;4973131;28;20041;-63
2022/09/12 11:55:16;;;;;;;3.67;3.38;;;;;;;;;;4974665;28;20035;-63
2022/09/12 11:57:47;;;;;;;3.80;3.50;;;;;;;;;;4974295;28;20039;-64
2022/09/12 12:00:17;;;;;;;3.47;3.17;;;;;;;;;;4972903;28;20034;-63
2022/09/12 12:02:43;;;;;;;4.13;3.53;;;;;;;;;;4972316;28;20027;-61
2022/09/12 12:05:27;;;;;;;2.92;2.72;;;;;;;;;;4972912;28;20073;-61
2022/09/12 12:07:52;;;;;;;4.13;3.70;;;;;;;;;;4973146;28;20043;-62
2022/09/12 12:10:32;;;;;;;4.05;3.75;;;;;;;;;;4973133;28;20030;-63
2022/09/12 12:12:59;;;;;;;3.90;3.60;;;;;;;;;;4974059;28;20554;-62
2022/09/12 12:15:25;;;;;;;4.53;3.05;;;;;;;;;;4973917;28;20026;-63
2022/09/12 12:18:20;;;;;;;5.78;3.60;;;;;;;;;;4972821;28;20444;-65
2022/09/12 12:20:46;;;;;;;2.88;2.67;;;;;;;;;;4973717;28;20054;-61
2022/09/12 12:23:28;;;;;;;4.22;3.08;;;;;;;;;;4973153;28;20026;-61
2022/09/12 12:25:55;;;;;;;5.50;3.55;;;;;;;;;;4972055;28;20042;-61
2022/09/12 12:28:39;;;;;;;2.78;2.58;;;;;;;;;;4971069;28;20066;-64
2022/09/12 12:31:04;;;;;;;3.33;3.10;;;;;;;;;;4970185;28;20042;-62
2022/09/12 12:33:30;;;;;;;5.35;3.03;;;;;;;;;;4967526;28;20426;-63
2022/09/12 12:35:58;;;;;;;3.35;3.05;;;;;;;;;;4970325;28;20577;-60
2022/09/12 12:38:30;;;;;;;3.08;2.88;;;;;;;;;;4967346;28;20179;-62
2022/09/12 12:41:14;;;;;;;3.13;2.80;;;;;;;;;;4967444;28;20027;-62
2022/09/12 12:43:40;;;;;;;3.08;2.88;;;;;;;;;;4971500;28;20088;-62
2022/09/12 12:46:06;;;;;;;2.88;2.67;;;;;;;;;;4969782;28;20038;-62
2022/09/12 12:48:34;;;;;;;2.90;2.70;;;;;;;;;;4971487;28;20090;-61
2022/09/12 12:51:20;;;;;;;2.92;2.72;;;;;;;;;;4970657;28;20031;-64
2022/09/12 12:53:45;;;;;;;3.00;2.80;;;;;;;;;;4971328;28;20022;-64
2022/09/12 12:56:28;;;;;;;3.42;2.63;;;;;;;;;;4971862;28;20081;-64
2022/09/12 12:58:58;;;;;;;3.33;3.00;;;;;;;;;;4972489;28;20089;-64
2022/09/12 13:01:24;;;;;;;3.22;2.88;;;;;;;;;;4972047;28;20026;-65
2022/09/12 13:03:54;;;;;;;3.10;2.90;;;;;;;;;;4974219;28;20048;-64
2022/09/12 13:06:40;;;;;;;3.15;2.92;;;;;;;;;;4972796;28;20303;-66
2022/09/12 13:09:25;;;;;;;3.40;3.13;;;;;;;;;;4972940;28;20035;-63
2022/09/12 13:12:03;;;;;;;3.28;3.00;;;;;;;;;;4970696;28;20053;-65
2022/09/12 13:14:34;;;;;;;3.95;3.72;;;;;;;;;;4973417;28;20030;-64
2022/09/12 13:17:00;;;;;;;3.20;3.00;;;;;;;;;;4972952;28;20073;-66
2022/09/12 13:19:35;;;;;;;3.35;3.05;;;;;;;;;;4979936;28;20188;-64
2022/09/12 13:22:00;;;;;;;3.85;3.38;;;;;;;;;;4967717;28;20477;-63
2022/09/12 13:24:25;;;;;;;3.50;3.20;;;;;;;;;;4969827;28;20039;-63
2022/09/12 13:26:52;;;;;;;3.40;3.17;;;;;;;;;;4972636;28;20430;-65
2022/09/12 13:29:19;;;;;;;3.53;3.00;;;;;;;;;;4973514;28;20037;-64
2022/09/12 13:31:45;;;;;;;5.63;2.67;;;;;;;;;;4971449;28;20034;-64
2022/09/12 13:34:15;;;;;;;2.88;2.70;;;;;;;;;;4973588;28;20027;-65
2022/09/12 13:36:49;;;;;;;3.25;3.00;;;;;;;;;;4971652;28;20500;-65
2022/09/12 13:39:14;;;;;;;3.13;2.92;;;;;;;;;;4972594;28;20054;-65
2022/09/12 13:42:02;;;;;;;2.70;2.50;;;;;;;;;;4969994;28;20549;-64
2022/09/12 13:44:29;;;;;;;3.88;3.17;;;;;;;;;;4970403;28;20215;-65
2022/09/12 13:46:57;;;;;;;3.22;3.03;;;;;;;;;;4973336;28;20925;-65
2022/09/12 13:49:40;;;;;;;3.15;2.95;;;;;;;;;;4971984;28;20031;-65
2022/09/12 13:52:08;;;;;;;5.28;3.05;;;;;;;;;;4973172;28;20097;-64
2022/09/12 13:54:36;;;;;;;3.42;3.22;;;;;;;;;;4973141;28;20056;-64
2022/09/12 13:57:02;;;;;;;3.63;3.42;;;;;;;;;;4973144;28;20054;-64
2022/09/12 13:59:36;;;;;;;3.28;3.08;;;;;;;;;;4971671;28;20048;-64
2022/09/12 14:02:01;;;;;;;2.63;2.42;;;;;;;;;;4972534;28;20023;-64
2022/09/12 14:07:14;;;;;;;3.70;3.22;;;;;;;;;;4977195;28;20058;-64
2022/09/12 14:09:41;;;;;;;3.55;3.25;;;;;;;;;;4976515;28;20030;-64
2022/09/12 14:12:17;;;;;;;2.58;2.38;;;;;;;;;;4975472;28;20114;-63
2022/09/12 14:14:44;;;;;;;3.47;3.08;;;;;;;;;;4974957;28;20027;-64
2022/09/12 14:17:22;;;;;;;3.20;3.00;;;;;;;;;;4975141;28;20027;-64
2022/09/12 14:19:48;;;;;;;2.58;2.47;;;;;;;;;;4975311;28;20053;-64
2022/09/12 14:22:16;;;;;;;2.60;2.40;;;;;;;;;;4976262;28;20466;-64
2022/09/12 14:24:50;;;;;;;2.55;2.40;;;;;;;;;;4975337;28;20031;-64
2022/09/12 14:27:22;;;;;;;5.03;2.88;;;;;;;;;;4977953;28;20050;-64
2022/09/12 14:29:47;;;;;;;2.88;2.67;;;;;;;;;;4975822;28;20062;-64
2022/09/12 14:32:20;;;;;;;4.53;3.05;;;;;;;;;;4975168;28;20121;-64
2022/09/12 14:35:03;;;;;;;2.95;2.53;;;;;;;;;;4975868;28;20113;-64
2022/09/12 14:37:28;;;;;;;3.88;2.50;;;;;;;;;;4975629;28;20481;-64
2022/09/12 14:39:53;;;;;;;3.92;2.70;;;;;;;;;;4974920;28;20061;-64
2022/09/12 14:42:20;;;;;;;3.10;2.80;;;;;;;;;;4976038;28;20473;-64
2022/09/12 14:44:56;;;;;;;3.28;3.08;;;;;;;;;;4975736;28;20109;-64
2022/09/12 14:47:23;;;;;;;3.00;2.35;;;;;;;;;;4975696;28;20116;-63
2022/09/12 14:49:50;;;;;;;2.83;2.63;;;;;;;;;;4972960;28;20122;-64
2022/09/12 14:52:27;;;;;;;3.85;3.08;;;;;;;;;;4971397;28;20033;-65
2022/09/12 14:54:59;;;;;;;3.15;2.72;;;;;;;;;;4972753;28;20038;-64
2022/09/12 14:57:31;;;;;;;3.40;3.15;;;;;;;;;;4975610;28;20040;-64